createdAt,value
2022-12-05T00:01:31.255Z,4.00
2022-12-05T00:04:01.343Z,4.10
2022-12-05T00:06:30.903Z,4.00
2022-12-05T00:08:58.705Z,4.00
2022-12-05T00:11:29.903Z,4.00
2022-12-05T00:13:59.814Z,3.90
2022-12-05T00:16:29.944Z,3.90
2022-12-05T00:19:00.668Z,3.90
2022-12-05T00:21:35.090Z,3.80
2022-12-05T00:24:03.808Z,3.80
2022-12-05T00:26:31.796Z,3.70
2022-12-05T00:28:59.719Z,3.60
2022-12-05T00:31:28.252Z,3.50
2022-12-05T00:36:28.262Z,3.40
2022-12-05T00:38:56.127Z,3.40
2022-12-05T00:41:26.502Z,3.40
2022-12-05T00:43:54.559Z,3.50
2022-12-05T00:46:24.925Z,3.50
2022-12-05T00:48:56.750Z,3.40
2022-12-05T00:51:34.535Z,3.30
2022-12-05T00:54:05.924Z,3.20
2022-12-05T00:56:34.265Z,3.20
2022-12-05T00:59:02.983Z,3.20
2022-12-05T01:01:37.070Z,3.20
2022-12-05T01:04:17.541Z,3.00
2022-12-05T01:06:44.838Z,3.10
2022-12-05T01:09:14.712Z,3.10
2022-12-05T01:11:42.241Z,3.00
2022-12-05T01:14:12.534Z,3.00
2022-12-05T01:16:41.621Z,2.90
2022-12-05T01:19:33.530Z,2.90
2022-12-05T01:22:01.019Z,2.90
2022-12-05T01:24:29.462Z,2.80
2022-12-05T01:26:57.233Z,2.80
2022-12-05T01:29:25.539Z,2.70
2022-12-05T01:31:53.233Z,2.70
2022-12-05T01:34:20.807Z,3.00
2022-12-05T01:36:47.991Z,2.60
2022-12-05T01:39:16.028Z,2.60
2022-12-05T01:41:47.612Z,2.60
2022-12-05T01:44:14.410Z,2.60
2022-12-05T01:46:50.945Z,2.70
2022-12-05T01:49:41.330Z,2.60
2022-12-05T01:52:20.303Z,2.60
2022-12-05T01:54:50.772Z,2.60
2022-12-05T01:57:17.975Z,2.70
2022-12-05T01:59:50.864Z,2.70
2022-12-05T02:02:18.381Z,2.70
2022-12-05T02:05:23.374Z,2.80
2022-12-05T02:07:50.892Z,2.80
2022-12-05T02:10:18.389Z,2.70
2022-12-05T02:12:46.323Z,2.60
2022-12-05T02:15:26.404Z,2.70
2022-12-05T02:18:27.136Z,2.70
2022-12-05T02:21:09.586Z,2.60
2022-12-05T02:24:19.528Z,2.70
2022-12-05T02:27:15.699Z,2.70
2022-12-05T02:30:08.848Z,2.50
2022-12-05T02:33:21.862Z,2.50
2022-12-05T02:36:13.466Z,2.60
2022-12-05T02:38:40.296Z,2.50
2022-12-05T02:41:23.005Z,2.60
2022-12-05T02:44:09.080Z,2.60
2022-12-05T02:46:39.341Z,2.60
2022-12-05T02:49:11.875Z,2.60
2022-12-05T02:51:43.506Z,2.50
2022-12-05T02:54:21.436Z,2.60
2022-12-05T02:56:50.936Z,2.50
2022-12-05T02:59:23.037Z,2.50
2022-12-05T03:01:51.276Z,2.50
2022-12-05T03:04:21.204Z,2.50
2022-12-05T03:06:58.836Z,2.60
2022-12-05T03:09:42.467Z,2.50
2022-12-05T03:12:19.370Z,2.50
2022-12-05T03:15:04.568Z,2.60
2022-12-05T03:17:38.345Z,2.50
2022-12-05T03:20:26.735Z,2.60
2022-12-05T03:23:02.029Z,2.60
2022-12-05T03:25:54.904Z,2.60
2022-12-05T03:28:58.316Z,2.70
2022-12-05T03:31:38.265Z,2.80
2022-12-05T03:34:12.867Z,2.90
2022-12-05T03:36:45.325Z,3.10
2022-12-05T03:39:30.697Z,3.20
2022-12-05T03:42:13.370Z,3.30
2022-12-05T03:45:01.609Z,3.40
2022-12-05T03:47:45.515Z,3.40
2022-12-05T03:50:31.055Z,3.30
2022-12-05T03:53:22.204Z,3.20
2022-12-05T03:56:08.955Z,3.10
2022-12-05T03:59:06.488Z,3.10
2022-12-05T04:01:35.075Z,3.10
2022-12-05T04:04:29.766Z,3.10
2022-12-05T04:06:59.086Z,3.40
2022-12-05T04:09:39.570Z,3.50
2022-12-05T04:12:15.265Z,3.50
2022-12-05T04:14:55.619Z,3.50
2022-12-05T04:17:34.722Z,3.50
2022-12-05T04:20:29.135Z,3.40
2022-12-05T04:22:56.355Z,3.50
2022-12-05T04:25:34.250Z,3.30
2022-12-05T04:28:19.585Z,3.30
2022-12-05T04:30:57.129Z,3.30
2022-12-05T04:33:45.224Z,3.30
2022-12-05T04:36:12.091Z,3.30
2022-12-05T04:39:03.367Z,3.20
2022-12-05T04:41:38.256Z,3.20
2022-12-05T04:44:11.335Z,3.20
2022-12-05T04:46:41.963Z,3.20
2022-12-05T04:49:15.866Z,3.40
2022-12-05T04:51:45.317Z,3.50
2022-12-05T04:54:20.037Z,3.60
2022-12-05T04:56:53.681Z,3.50
2022-12-05T04:59:23.703Z,3.60
2022-12-05T05:01:58.583Z,3.50
2022-12-05T05:04:42.215Z,3.50
2022-12-05T05:07:11.948Z,3.40
2022-12-05T05:09:40.520Z,3.40
2022-12-05T05:12:07.863Z,3.50
2022-12-05T05:14:35.173Z,3.60
2022-12-05T05:17:02.269Z,3.50
2022-12-05T05:19:29.476Z,3.40
2022-12-05T05:21:56.600Z,3.40
2022-12-05T05:24:25.882Z,3.30
2022-12-05T05:26:57.319Z,3.30
2022-12-05T05:29:24.920Z,3.30
2022-12-05T05:31:51.899Z,3.40
2022-12-05T05:34:18.897Z,3.40
2022-12-05T05:36:45.855Z,3.40
2022-12-05T05:39:15.357Z,3.30
2022-12-05T05:41:43.548Z,3.40
2022-12-05T05:44:10.946Z,3.40
2022-12-05T05:46:38.655Z,3.40
2022-12-05T05:49:05.880Z,3.40
2022-12-05T05:51:32.897Z,3.40
2022-12-05T05:54:00.470Z,3.30
2022-12-05T05:56:28.426Z,3.40
2022-12-05T05:59:01.830Z,3.30
2022-12-05T06:01:29.787Z,3.30
2022-12-05T06:03:57.176Z,3.30
2022-12-05T06:06:25.181Z,3.30
2022-12-05T06:08:52.091Z,3.30
2022-12-05T06:11:26.331Z,3.20
2022-12-05T06:13:56.350Z,3.20
2022-12-05T06:16:24.614Z,3.30
2022-12-05T06:18:53.330Z,3.40
2022-12-05T06:23:49.550Z,3.70
2022-12-05T06:26:19.759Z,3.90
2022-12-05T06:28:46.882Z,4.00
2022-12-05T06:31:22.614Z,4.10
2022-12-05T06:33:50.098Z,4.00
2022-12-05T06:36:22.282Z,3.80
2022-12-05T06:38:49.787Z,3.80
2022-12-05T06:41:19.969Z,3.70
2022-12-05T06:43:47.597Z,3.70
2022-12-05T06:46:15.816Z,3.70
2022-12-05T06:48:42.937Z,3.60
2022-12-05T06:53:41.168Z,3.60
2022-12-05T06:56:13.610Z,3.70
2022-12-05T06:58:42.233Z,3.70
2022-12-05T07:04:25.773Z,3.70
2022-12-05T07:06:55.525Z,3.90
2022-12-05T07:09:45.858Z,3.90
2022-12-05T07:14:48.043Z,4.10
2022-12-05T07:17:15.426Z,4.20
2022-12-05T07:19:42.342Z,4.30
2022-12-05T07:22:13.867Z,4.40
2022-12-05T07:24:43.865Z,4.30
2022-12-05T07:27:11.114Z,4.10
2022-12-05T07:29:38.120Z,4.00
2022-12-05T07:32:05.693Z,3.90
2022-12-05T07:34:32.734Z,3.90
2022-12-05T07:37:00.852Z,3.90
2022-12-05T07:39:28.103Z,3.70
2022-12-05T07:41:55.011Z,3.70
2022-12-05T07:44:22.002Z,3.70
2022-12-05T07:46:48.957Z,3.70
2022-12-05T07:49:15.961Z,3.80
2022-12-05T07:51:42.931Z,3.80
2022-12-05T07:54:09.831Z,3.70
2022-12-05T07:56:36.794Z,3.70
2022-12-05T07:59:03.883Z,3.70
2022-12-05T08:01:31.001Z,3.70
2022-12-05T08:03:59.577Z,3.70
2022-12-05T08:06:29.939Z,3.70
2022-12-05T08:08:57.403Z,3.70
2022-12-05T08:11:28.156Z,3.80
2022-12-05T08:13:56.423Z,3.80
2022-12-05T08:16:27.268Z,3.80
2022-12-05T08:19:02.985Z,3.70
2022-12-05T08:21:30.751Z,3.80
2022-12-05T08:23:58.296Z,3.90
2022-12-05T08:26:28.403Z,4.00
2022-12-05T08:28:59.532Z,4.00
2022-12-05T08:31:29.581Z,4.10
2022-12-05T08:33:59.386Z,4.20
2022-12-05T08:36:29.207Z,4.40
2022-12-05T08:39:02.043Z,4.60
2022-12-05T08:41:30.231Z,4.80
2022-12-05T08:44:05.376Z,4.90
2022-12-05T08:46:34.839Z,5.00
2022-12-05T08:49:03.379Z,5.10
2022-12-05T08:51:30.353Z,5.20
2022-12-05T08:53:57.328Z,5.30
2022-12-05T08:56:27.398Z,5.30
2022-12-05T08:58:59.826Z,5.40
2022-12-05T09:01:32.132Z,5.40
2022-12-05T09:04:01.162Z,5.50
2022-12-05T09:06:29.814Z,5.50
2022-12-05T09:09:00.476Z,5.60
2022-12-05T09:11:31.397Z,5.60
2022-12-05T09:14:00.487Z,5.60
2022-12-05T09:16:36.873Z,5.60
2022-12-05T09:19:27.678Z,5.70
2022-12-05T09:21:55.609Z,5.70
2022-12-05T09:24:22.678Z,5.50
2022-12-05T09:26:50.034Z,5.60
2022-12-05T09:29:18.178Z,5.70
2022-12-05T09:31:47.896Z,5.70
2022-12-05T09:34:17.877Z,5.50
2022-12-05T09:36:46.410Z,5.60
2022-12-05T09:39:13.398Z,5.60
2022-12-05T09:42:23.455Z,5.30
2022-12-05T09:45:29.386Z,5.30
2022-12-05T09:48:14.010Z,5.10
2022-12-05T09:50:46.147Z,4.90
2022-12-05T09:53:30.923Z,4.90
2022-12-05T09:56:05.885Z,4.90
2022-12-05T09:58:53.928Z,4.90
2022-12-05T10:01:57.908Z,4.90
2022-12-05T10:05:00.796Z,4.90
2022-12-05T10:07:42.802Z,5.10
2022-12-05T10:10:25.048Z,5.20
2022-12-05T10:13:18.629Z,5.40
2022-12-05T10:15:56.775Z,5.50
2022-12-05T10:18:30.382Z,5.70
2022-12-05T10:21:05.733Z,5.80
2022-12-05T10:23:58.968Z,5.90
2022-12-05T10:26:58.767Z,5.80
2022-12-05T10:29:35.547Z,5.90
2022-12-05T10:32:18.967Z,5.90
2022-12-05T10:34:46.647Z,6.00
2022-12-05T10:37:22.587Z,6.00
2022-12-05T10:39:51.179Z,6.60
2022-12-05T10:42:34.909Z,6.10
2022-12-05T10:45:09.128Z,6.20
2022-12-05T10:47:36.453Z,6.20
2022-12-05T10:50:33.115Z,6.40
2022-12-05T10:53:03.413Z,6.40
2022-12-05T10:56:00.076Z,6.30
2022-12-05T10:58:32.399Z,6.50
2022-12-05T11:01:09.342Z,6.50
2022-12-05T11:03:42.241Z,6.60
2022-12-05T11:19:29.547Z,6.70
2022-12-05T11:45:54.199Z,6.70
2022-12-05T11:49:03.807Z,6.80
2022-12-05T11:51:44.516Z,6.80
2022-12-05T11:58:02.970Z,6.70
2022-12-05T12:03:48.707Z,6.20
2022-12-05T12:12:19.957Z,6.30
2022-12-05T12:15:07.141Z,6.40
2022-12-05T12:17:49.221Z,6.50
2022-12-05T12:20:24.994Z,6.50
2022-12-05T12:36:46.546Z,6.30
2022-12-05T12:39:43.475Z,6.30
2022-12-05T12:45:38.113Z,6.30
2022-12-05T12:48:29.322Z,6.40
2022-12-05T12:51:01.229Z,6.50
2022-12-05T12:53:47.808Z,6.60
2022-12-05T12:57:01.669Z,6.60
2022-12-05T13:00:03.292Z,6.70
2022-12-05T13:02:41.411Z,6.70
2022-12-05T13:05:23.885Z,6.80
2022-12-05T13:10:48.221Z,6.80
2022-12-05T13:13:38.390Z,6.80
2022-12-05T13:16:08.072Z,6.80
2022-12-05T13:21:09.228Z,6.80
2022-12-05T13:23:47.620Z,6.90
2022-12-05T13:28:54.062Z,6.90
2022-12-05T13:31:45.341Z,6.90
2022-12-05T13:34:35.326Z,6.80
2022-12-05T13:54:18.385Z,6.80
2022-12-05T13:56:58.956Z,6.80
2022-12-05T14:00:24.105Z,6.80
2022-12-05T14:05:21.050Z,6.70
2022-12-05T14:08:35.702Z,6.90
2022-12-05T14:11:05.811Z,6.90
2022-12-05T14:13:33.719Z,6.90
2022-12-05T14:16:25.689Z,6.80
2022-12-05T14:19:24.341Z,6.80
2022-12-05T14:24:53.445Z,6.60
2022-12-05T14:33:17.903Z,6.30
2022-12-05T14:46:29.830Z,6.10
2022-12-05T14:48:57.059Z,6.20
2022-12-05T14:51:33.072Z,6.30
2022-12-05T14:54:20.460Z,6.20
2022-12-05T14:57:04.230Z,6.20
2022-12-05T14:59:52.337Z,6.10
2022-12-05T15:02:29.755Z,6.10
2022-12-05T15:05:18.320Z,6.10
2022-12-05T15:07:46.799Z,6.10
2022-12-05T15:10:33.919Z,6.10
2022-12-05T15:13:22.211Z,6.20
2022-12-05T15:16:14.457Z,6.20
2022-12-05T15:18:49.644Z,6.10
2022-12-05T15:21:32.505Z,6.10
2022-12-05T15:24:06.404Z,6.00
2022-12-05T15:29:25.412Z,6.00
2022-12-05T15:31:53.393Z,6.00
2022-12-05T15:34:30.602Z,6.00
2022-12-05T16:39:28.842Z,5.50
2022-12-05T16:41:56.283Z,5.60
2022-12-05T16:44:31.425Z,5.50
2022-12-05T16:46:58.990Z,5.20
2022-12-05T16:49:38.812Z,5.10
2022-12-05T16:52:09.688Z,4.90
2022-12-05T16:54:36.605Z,4.80
2022-12-05T16:57:04.532Z,4.70
2022-12-05T16:59:38.511Z,4.70
2022-12-05T17:02:12.865Z,4.80
2022-12-05T17:04:40.390Z,4.80
2022-12-05T17:07:07.390Z,4.90
2022-12-05T17:09:34.405Z,5.00
2022-12-05T17:12:24.045Z,5.10
2022-12-05T17:14:51.194Z,5.20
2022-12-05T17:17:18.951Z,5.30
2022-12-05T17:19:46.195Z,5.30
2022-12-05T17:22:18.129Z,5.30
2022-12-05T17:24:45.542Z,5.40
2022-12-05T17:27:13.011Z,5.40
2022-12-05T17:29:39.916Z,5.40
2022-12-05T17:32:07.007Z,5.40
2022-12-05T17:34:33.944Z,5.20
2022-12-05T17:37:01.115Z,5.00
2022-12-05T17:39:28.894Z,4.90
2022-12-05T17:41:56.372Z,4.90
2022-12-05T17:44:23.676Z,4.90
2022-12-05T17:46:50.813Z,4.70
2022-12-05T17:49:18.416Z,4.60
2022-12-05T17:52:13.602Z,4.60
2022-12-05T17:54:32.677Z,4.40
2022-12-05T17:56:59.601Z,4.30
2022-12-05T17:59:26.496Z,4.10
2022-12-05T18:01:53.465Z,4.10
2022-12-05T18:07:07.466Z,4.10
2022-12-05T18:09:34.432Z,4.20
2022-12-05T18:12:01.460Z,4.40
2022-12-05T18:14:28.551Z,4.50
2022-12-05T18:16:55.693Z,4.60
2022-12-05T18:19:22.655Z,4.70
2022-12-05T18:21:49.601Z,4.80
2022-12-05T18:24:17.035Z,4.80
2022-12-05T18:26:44.075Z,4.90
2022-12-05T18:29:11.071Z,5.00
2022-12-05T18:31:41.398Z,5.00
2022-12-05T18:34:08.800Z,5.10
2022-12-05T18:36:35.760Z,5.10
2022-12-05T18:39:02.713Z,5.20
2022-12-05T18:41:29.705Z,5.20
2022-12-05T18:43:56.758Z,5.00
2022-12-05T18:46:24.316Z,5.00
2022-12-05T18:48:51.386Z,5.00
2022-12-05T18:51:23.736Z,4.90
2022-12-05T18:53:54.067Z,4.80
2022-12-05T18:56:30.966Z,4.70
2022-12-05T18:59:02.446Z,4.60
2022-12-05T19:01:31.843Z,4.60
2022-12-05T19:04:00.755Z,4.60
2022-12-05T19:06:31.010Z,4.50
2022-12-05T19:13:57.518Z,4.20
2022-12-05T19:18:56.151Z,4.30
2022-12-05T19:21:29.798Z,3.70
2022-12-05T19:23:57.562Z,3.70
2022-12-05T19:26:25.971Z,4.10
2022-12-05T19:28:53.173Z,4.00
2022-12-05T19:31:23.850Z,4.10
2022-12-05T19:33:54.853Z,4.20
2022-12-05T19:36:27.401Z,4.30
2022-12-05T19:38:55.775Z,4.40
2022-12-05T19:41:26.942Z,4.40
2022-12-05T19:46:25.179Z,4.50
2022-12-05T19:51:20.945Z,4.40
2022-12-05T19:53:49.825Z,4.30
2022-12-05T19:56:23.860Z,4.30
2022-12-05T19:58:53.048Z,4.30
2022-12-05T20:01:23.853Z,4.30
2022-12-05T20:03:53.855Z,4.10
2022-12-05T20:06:21.788Z,4.00
2022-12-05T20:08:51.208Z,3.80
2022-12-05T20:11:24.894Z,3.80
2022-12-05T20:13:55.533Z,3.80
2022-12-05T20:16:26.787Z,3.90
2022-12-05T20:18:58.085Z,3.90
2022-12-05T20:21:27.432Z,3.80
2022-12-05T20:23:54.778Z,3.80
2022-12-05T20:26:28.608Z,3.90
2022-12-05T20:28:58.677Z,3.90
2022-12-05T20:31:35.672Z,3.90
2022-12-05T20:34:03.436Z,4.00
2022-12-05T20:36:33.711Z,4.10
2022-12-05T20:39:08.144Z,4.20
2022-12-05T20:44:06.157Z,4.00
2022-12-05T20:46:35.025Z,4.10
2022-12-05T20:49:02.490Z,4.10
2022-12-05T20:51:33.303Z,4.10
2022-12-05T20:54:02.425Z,4.10
2022-12-05T20:56:33.835Z,4.00
2022-12-05T20:59:04.439Z,4.10
2022-12-05T21:01:35.185Z,4.10
2022-12-05T21:04:05.707Z,4.20
2022-12-05T21:06:36.215Z,4.20
2022-12-05T21:09:15.060Z,4.30
2022-12-05T21:11:42.945Z,4.30
2022-12-05T21:14:10.245Z,4.30
2022-12-05T21:16:37.587Z,4.50
2022-12-05T21:19:04.599Z,4.50
2022-12-05T21:21:34.065Z,4.50
2022-12-05T21:24:03.240Z,4.50
2022-12-05T21:26:33.867Z,4.50
2022-12-05T21:29:02.989Z,4.50
2022-12-05T21:31:36.525Z,4.60
2022-12-05T21:34:08.046Z,4.70
2022-12-05T21:36:36.741Z,4.70
2022-12-05T21:39:06.231Z,4.80
2022-12-05T21:41:34.302Z,4.70
2022-12-05T21:44:01.576Z,4.70
2022-12-05T21:46:28.741Z,4.70
2022-12-05T21:48:55.818Z,4.60
2022-12-05T21:53:51.738Z,4.40
2022-12-05T21:56:23.433Z,4.50
2022-12-05T21:58:51.346Z,4.40
2022-12-05T22:01:22.846Z,4.40
2022-12-05T22:04:01.282Z,4.40
2022-12-05T22:06:29.958Z,4.30
2022-12-05T22:13:53.502Z,3.70
2022-12-05T22:18:49.801Z,3.90
2022-12-05T22:28:55.822Z,3.80
2022-12-05T22:33:51.473Z,4.00
2022-12-05T22:36:20.106Z,4.10
2022-12-05T22:38:48.454Z,4.20
2022-12-05T22:41:19.962Z,4.30
2022-12-05T22:43:49.087Z,4.40
2022-12-05T22:46:19.791Z,4.40
2022-12-05T22:48:48.335Z,4.50
2022-12-05T22:51:16.339Z,4.50
2022-12-05T22:53:43.553Z,4.60
2022-12-05T22:56:16.410Z,4.60
2022-12-05T22:58:45.055Z,4.70
2022-12-05T23:01:33.727Z,4.70
2022-12-05T23:04:08.420Z,4.70
2022-12-05T23:06:37.044Z,4.70
2022-12-05T23:09:07.189Z,4.70
2022-12-05T23:11:34.492Z,4.60
2022-12-05T23:14:02.531Z,4.50
2022-12-05T23:16:32.100Z,4.60
2022-12-05T23:19:03.422Z,4.50
2022-12-05T23:21:40.541Z,4.50
2022-12-05T23:24:11.302Z,4.50
2022-12-05T23:26:44.517Z,4.50
2022-12-05T23:29:13.579Z,4.40
2022-12-05T23:31:42.103Z,4.40
2022-12-05T23:34:09.539Z,4.40
2022-12-05T23:36:36.883Z,4.30
2022-12-05T23:39:05.262Z,4.30
2022-12-05T23:41:32.601Z,4.30
2022-12-05T23:43:59.714Z,4.20
2022-12-05T23:46:28.388Z,4.20
2022-12-05T23:48:55.954Z,4.20
2022-12-05T23:51:26.482Z,4.10
2022-12-05T23:53:59.870Z,4.10
2022-12-05T23:56:30.528Z,4.00
2022-12-05T23:58:58.247Z,3.90
